Main page
METAR-TAF:

METAR-TAF

Airports :

Deer Park Airport

Deer Park, Washington, United States

latitude: 47-58-27N, longitude: 117-25-42W, elevation: 2204 ft

Current weather observation

The report was made 25 minutes ago, at 14:53 UTC
Wind 6 mph from the North/Northeast
Temperature 64°F
Humidity 45%
Pressure 29.99 in. Hg
Visibility: 10 miles
Clear sky

METAR: KDEW 211453Z AUTO 03005KT 10SM CLR 18/06 A2999 RMK AO2 SLP143 T01830056 51003

Time: 08:18 (15:18 UTC)


TAF: missing

Weather observations and forecasts of more than 4000 airports (METAR and TAF reports).

The available stations are represented by yellow and red dots on the map.

Hover mouse over dot to see the name of the station.

Then click to see weather observations and forecasts.

To change the map : click on the green buttons with a black cross to zoom in, on the green button with a dash to zoom out, or on the green arrows for adjacent maps.


METAR-TAF: